sensor_id;sensor_type;location;lat;lon;timestamp;temperature;humidity
40287;DHT22;25998;46.604;13.610;2023-06-10T00:01:10;16.80;99.90
40287;DHT22;25998;46.604;13.610;2023-06-10T00:04:21;16.70;99.90
40287;DHT22;25998;46.604;13.610;2023-06-10T00:07:32;16.50;99.90
40287;DHT22;25998;46.604;13.610;2023-06-10T00:10:43;16.40;99.90
40287;DHT22;25998;46.604;13.610;2023-06-10T00:13:54;16.40;99.90
40287;DHT22;25998;46.604;13.610;2023-06-10T00:17:05;16.40;99.90
40287;DHT22;25998;46.604;13.610;2023-06-10T00:20:19;16.50;99.90
40287;DHT22;25998;46.604;13.610;2023-06-10T00:23:34;16.60;99.90
40287;DHT22;25998;46.604;13.610;2023-06-10T00:26:48;16.40;99.90
40287;DHT22;25998;46.604;13.610;2023-06-10T00:29:59;16.50;99.90
40287;DHT22;25998;46.604;13.610;2023-06-10T00:33:10;16.20;99.90
40287;DHT22;25998;46.604;13.610;2023-06-10T00:36:21;16.00;99.90
40287;DHT22;25998;46.604;13.610;2023-06-10T00:39:31;15.90;99.90
40287;DHT22;25998;46.604;13.610;2023-06-10T00:42:42;16.00;99.90
40287;DHT22;25998;46.604;13.610;2023-06-10T00:45:53;15.90;99.90
40287;DHT22;25998;46.604;13.610;2023-06-10T00:49:05;15.90;99.90
40287;DHT22;25998;46.604;13.610;2023-06-10T00:52:17;15.90;99.90
40287;DHT22;25998;46.604;13.610;2023-06-10T00:55:31;16.00;99.90
40287;DHT22;25998;46.604;13.610;2023-06-10T00:58:43;16.00;99.90
40287;DHT22;25998;46.604;13.610;2023-06-10T01:01:54;15.90;99.90
40287;DHT22;25998;46.604;13.610;2023-06-10T01:05:06;15.80;99.90
40287;DHT22;25998;46.604;13.610;2023-06-10T01:09:11;15.90;99.90
40287;DHT22;25998;46.604;13.610;2023-06-10T01:12:12;16.00;99.90
40287;DHT22;25998;46.604;13.610;2023-06-10T01:15:27;16.00;99.90
40287;DHT22;25998;46.604;13.610;2023-06-10T01:18:37;15.80;99.90
40287;DHT22;25998;46.604;13.610;2023-06-10T01:21:51;15.60;99.90
40287;DHT22;25998;46.604;13.610;2023-06-10T01:25:02;15.70;99.90
40287;DHT22;25998;46.604;13.610;2023-06-10T01:28:27;15.90;99.90
40287;DHT22;25998;46.604;13.610;2023-06-10T01:31:42;16.00;99.90
40287;DHT22;25998;46.604;13.610;2023-06-10T01:34:54;15.90;99.90
40287;DHT22;25998;46.604;13.610;2023-06-10T01:38:06;15.70;99.90
40287;DHT22;25998;46.604;13.610;2023-06-10T01:41:18;15.60;99.90
40287;DHT22;25998;46.604;13.610;2023-06-10T01:44:32;15.50;99.90
40287;DHT22;25998;46.604;13.610;2023-06-10T01:47:43;15.50;99.90
40287;DHT22;25998;46.604;13.610;2023-06-10T01:50:53;15.50;99.90
40287;DHT22;25998;46.604;13.610;2023-06-10T01:54:06;15.50;99.90
40287;DHT22;25998;46.604;13.610;2023-06-10T01:57:17;15.40;99.90
40287;DHT22;25998;46.604;13.610;2023-06-10T02:00:28;15.60;99.90
40287;DHT22;25998;46.604;13.610;2023-06-10T02:03:39;15.70;99.90
40287;DHT22;25998;46.604;13.610;2023-06-10T02:06:50;15.80;99.90
40287;DHT22;25998;46.604;13.610;2023-06-10T02:10:02;15.80;99.90
40287;DHT22;25998;46.604;13.610;2023-06-10T02:13:13;15.90;99.90
40287;DHT22;25998;46.604;13.610;2023-06-10T02:16:24;15.80;99.90
40287;DHT22;25998;46.604;13.610;2023-06-10T02:19:35;15.70;99.90
40287;DHT22;25998;46.604;13.610;2023-06-10T02:22:47;15.70;99.90
40287;DHT22;25998;46.604;13.610;2023-06-10T02:25:58;15.70;99.90
40287;DHT22;25998;46.604;13.610;2023-06-10T02:29:09;15.70;99.90
40287;DHT22;25998;46.604;13.610;2023-06-10T02:32:20;15.60;99.90
40287;DHT22;25998;46.604;13.610;2023-06-10T02:35:31;15.60;99.90
40287;DHT22;25998;46.604;13.610;2023-06-10T02:38:42;15.30;99.90
40287;DHT22;25998;46.604;13.610;2023-06-10T02:41:53;15.10;99.90
40287;DHT22;25998;46.604;13.610;2023-06-10T02:45:04;15.20;99.90
40287;DHT22;25998;46.604;13.610;2023-06-10T02:48:15;15.30;99.90
40287;DHT22;25998;46.604;13.610;2023-06-10T02:51:26;15.30;99.90
40287;DHT22;25998;46.604;13.610;2023-06-10T02:54:38;15.40;99.90
40287;DHT22;25998;46.604;13.610;2023-06-10T02:57:49;15.50;99.90
40287;DHT22;25998;46.604;13.610;2023-06-10T03:01:00;15.60;99.90
40287;DHT22;25998;46.604;13.610;2023-06-10T03:04:11;15.60;99.90
40287;DHT22;25998;46.604;13.610;2023-06-10T03:07:24;15.60;99.90
40287;DHT22;25998;46.604;13.610;2023-06-10T03:10:36;15.60;99.90
40287;DHT22;25998;46.604;13.610;2023-06-10T03:13:47;15.50;99.90
40287;DHT22;25998;46.604;13.610;2023-06-10T03:16:58;15.30;99.90
40287;DHT22;25998;46.604;13.610;2023-06-10T03:20:10;15.10;99.90
40287;DHT22;25998;46.604;13.610;2023-06-10T03:23:22;14.80;99.90
40287;DHT22;25998;46.604;13.610;2023-06-10T03:26:33;14.80;99.90
40287;DHT22;25998;46.604;13.610;2023-06-10T03:29:44;14.90;99.90
40287;DHT22;25998;46.604;13.610;2023-06-10T03:32:55;14.80;99.90
40287;DHT22;25998;46.604;13.610;2023-06-10T03:36:06;14.90;99.90
40287;DHT22;25998;46.604;13.610;2023-06-10T03:39:17;15.00;99.90
40287;DHT22;25998;46.604;13.610;2023-06-10T03:42:28;15.10;99.90
40287;DHT22;25998;46.604;13.610;2023-06-10T03:45:38;15.30;99.90
40287;DHT22;25998;46.604;13.610;2023-06-10T03:48:51;15.40;99.90
40287;DHT22;25998;46.604;13.610;2023-06-10T03:52:02;15.40;99.90
40287;DHT22;25998;46.604;13.610;2023-06-10T03:55:13;15.40;99.90
40287;DHT22;25998;46.604;13.610;2023-06-10T03:58:24;15.30;99.90
40287;DHT22;25998;46.604;13.610;2023-06-10T04:01:35;15.30;99.90
40287;DHT22;25998;46.604;13.610;2023-06-10T04:04:48;15.20;99.90
40287;DHT22;25998;46.604;13.610;2023-06-10T04:07:59;15.30;99.90
40287;DHT22;25998;46.604;13.610;2023-06-10T04:11:10;15.40;99.90
40287;DHT22;25998;46.604;13.610;2023-06-10T04:14:20;15.40;99.90
40287;DHT22;25998;46.604;13.610;2023-06-10T04:17:31;15.50;99.90
40287;DHT22;25998;46.604;13.610;2023-06-10T04:20:42;15.30;99.90
40287;DHT22;25998;46.604;13.610;2023-06-10T04:23:54;15.40;99.90
40287;DHT22;25998;46.604;13.610;2023-06-10T04:27:05;15.30;99.90
40287;DHT22;25998;46.604;13.610;2023-06-10T04:30:16;15.20;99.90
40287;DHT22;25998;46.604;13.610;2023-06-10T04:33:28;14.90;99.90
40287;DHT22;25998;46.604;13.610;2023-06-10T04:36:39;14.90;99.90
40287;DHT22;25998;46.604;13.610;2023-06-10T04:39:50;15.00;99.90
40287;DHT22;25998;46.604;13.610;2023-06-10T04:43:00;15.20;99.90
40287;DHT22;25998;46.604;13.610;2023-06-10T04:46:11;15.40;99.90
40287;DHT22;25998;46.604;13.610;2023-06-10T04:49:23;15.50;99.90
40287;DHT22;25998;46.604;13.610;2023-06-10T04:52:34;15.40;99.90
40287;DHT22;25998;46.604;13.610;2023-06-10T04:55:45;15.10;99.90
40287;DHT22;25998;46.604;13.610;2023-06-10T04:58:57;15.10;99.90
40287;DHT22;25998;46.604;13.610;2023-06-10T05:02:08;15.00;99.90
40287;DHT22;25998;46.604;13.610;2023-06-10T05:05:19;15.00;99.90
40287;DHT22;25998;46.604;13.610;2023-06-10T05:08:30;15.20;99.90
40287;DHT22;25998;46.604;13.610;2023-06-10T05:11:41;15.20;99.90
40287;DHT22;25998;46.604;13.610;2023-06-10T05:14:52;15.40;99.90
40287;DHT22;25998;46.604;13.610;2023-06-10T05:18:03;15.40;99.90
40287;DHT22;25998;46.604;13.610;2023-06-10T05:21:15;15.50;99.90
40287;DHT22;25998;46.604;13.610;2023-06-10T05:24:26;15.60;99.90
40287;DHT22;25998;46.604;13.610;2023-06-10T05:27:37;15.70;99.90
40287;DHT22;25998;46.604;13.610;2023-06-10T05:30:48;15.80;99.90
40287;DHT22;25998;46.604;13.610;2023-06-10T05:34:00;15.90;99.90
40287;DHT22;25998;46.604;13.610;2023-06-10T05:37:12;16.10;99.90
40287;DHT22;25998;46.604;13.610;2023-06-10T05:40:23;16.20;99.90
40287;DHT22;25998;46.604;13.610;2023-06-10T05:43:34;16.50;99.90
40287;DHT22;25998;46.604;13.610;2023-06-10T05:46:45;16.90;99.90
40287;DHT22;25998;46.604;13.610;2023-06-10T05:49:56;17.30;99.90
40287;DHT22;25998;46.604;13.610;2023-06-10T05:53:07;17.50;99.90
40287;DHT22;25998;46.604;13.610;2023-06-10T05:56:25;18.00;99.90
40287;DHT22;25998;46.604;13.610;2023-06-10T05:59:36;18.20;99.90
40287;DHT22;25998;46.604;13.610;2023-06-10T06:02:47;18.70;99.90
40287;DHT22;25998;46.604;13.610;2023-06-10T06:05:58;19.20;99.90
40287;DHT22;25998;46.604;13.610;2023-06-10T06:09:08;19.50;99.90
40287;DHT22;25998;46.604;13.610;2023-06-10T06:12:19;19.90;99.90
40287;DHT22;25998;46.604;13.610;2023-06-10T06:15:30;20.40;99.90
40287;DHT22;25998;46.604;13.610;2023-06-10T06:18:41;20.80;99.90
40287;DHT22;25998;46.604;13.610;2023-06-10T06:21:52;21.00;99.90
40287;DHT22;25998;46.604;13.610;2023-06-10T06:25:03;21.30;99.90
40287;DHT22;25998;46.604;13.610;2023-06-10T06:28:14;21.30;99.90
40287;DHT22;25998;46.604;13.610;2023-06-10T06:31:25;21.50;99.90
40287;DHT22;25998;46.604;13.610;2023-06-10T06:34:35;21.70;99.90
40287;DHT22;25998;46.604;13.610;2023-06-10T06:37:46;22.00;99.90
40287;DHT22;25998;46.604;13.610;2023-06-10T06:40:57;22.10;99.90
40287;DHT22;25998;46.604;13.610;2023-06-10T06:44:13;22.40;99.90
40287;DHT22;25998;46.604;13.610;2023-06-10T06:47:24;22.60;99.90
40287;DHT22;25998;46.604;13.610;2023-06-10T06:50:37;22.70;99.90
40287;DHT22;25998;46.604;13.610;2023-06-10T06:53:48;22.80;99.90
40287;DHT22;25998;46.604;13.610;2023-06-10T06:57:00;22.60;99.90
40287;DHT22;25998;46.604;13.610;2023-06-10T07:00:12;22.90;99.90
40287;DHT22;25998;46.604;13.610;2023-06-10T07:03:23;23.20;99.90
40287;DHT22;25998;46.604;13.610;2023-06-10T07:06:33;23.30;99.90
40287;DHT22;25998;46.604;13.610;2023-06-10T07:09:45;23.40;99.90
40287;DHT22;25998;46.604;13.610;2023-06-10T07:12:56;23.30;99.90
40287;DHT22;25998;46.604;13.610;2023-06-10T07:16:07;22.60;99.90
40287;DHT22;25998;46.604;13.610;2023-06-10T07:19:18;22.90;99.90
40287;DHT22;25998;46.604;13.610;2023-06-10T07:22:31;23.20;99.90
40287;DHT22;25998;46.604;13.610;2023-06-10T07:25:42;23.00;99.90
40287;DHT22;25998;46.604;13.610;2023-06-10T07:28:53;23.10;99.90
40287;DHT22;25998;46.604;13.610;2023-06-10T07:32:04;23.20;99.90
40287;DHT22;25998;46.604;13.610;2023-06-10T07:35:15;23.30;99.80
40287;DHT22;25998;46.604;13.610;2023-06-10T07:38:26;23.60;99.70
40287;DHT22;25998;46.604;13.610;2023-06-10T07:41:37;23.30;99.90
40287;DHT22;25998;46.604;13.610;2023-06-10T07:44:48;23.50;99.90
40287;DHT22;25998;46.604;13.610;2023-06-10T07:47:58;23.60;99.90
40287;DHT22;25998;46.604;13.610;2023-06-10T07:51:09;23.30;99.90
40287;DHT22;25998;46.604;13.610;2023-06-10T07:54:20;23.70;99.90
40287;DHT22;25998;46.604;13.610;2023-06-10T07:57:31;24.00;99.70
40287;DHT22;25998;46.604;13.610;2023-06-10T08:00:46;24.10;99.90
40287;DHT22;25998;46.604;13.610;2023-06-10T08:03:57;24.20;99.90
40287;DHT22;25998;46.604;13.610;2023-06-10T08:07:08;24.70;99.30
40287;DHT22;25998;46.604;13.610;2023-06-10T08:10:19;24.80;99.30
40287;DHT22;25998;46.604;13.610;2023-06-10T08:13:29;25.00;99.70
40287;DHT22;25998;46.604;13.610;2023-06-10T08:16:41;24.90;98.40
40287;DHT22;25998;46.604;13.610;2023-06-10T08:19:52;25.00;99.60
40287;DHT22;25998;46.604;13.610;2023-06-10T08:23:03;25.30;98.70
40287;DHT22;25998;46.604;13.610;2023-06-10T08:26:13;24.90;98.90
40287;DHT22;25998;46.604;13.610;2023-06-10T08:29:25;25.30;98.60
40287;DHT22;25998;46.604;13.610;2023-06-10T08:32:36;25.40;99.30
40287;DHT22;25998;46.604;13.610;2023-06-10T08:35:47;25.70;99.00
40287;DHT22;25998;46.604;13.610;2023-06-10T08:38:58;25.80;98.00
40287;DHT22;25998;46.604;13.610;2023-06-10T08:42:25;25.50;97.90
40287;DHT22;25998;46.604;13.610;2023-06-10T08:45:39;25.20;98.30
40287;DHT22;25998;46.604;13.610;2023-06-10T08:48:54;25.40;98.90
40287;DHT22;25998;46.604;13.610;2023-06-10T08:52:06;25.60;98.00
40287;DHT22;25998;46.604;13.610;2023-06-10T08:55:32;25.70;97.90
40287;DHT22;25998;46.604;13.610;2023-06-10T08:58:46;25.80;99.70
40287;DHT22;25998;46.604;13.610;2023-06-10T09:01:58;26.20;99.10
40287;DHT22;25998;46.604;13.610;2023-06-10T09:05:10;26.40;97.40
40287;DHT22;25998;46.604;13.610;2023-06-10T09:08:22;26.20;97.40
40287;DHT22;25998;46.604;13.610;2023-06-10T09:11:33;26.10;96.90
40287;DHT22;25998;46.604;13.610;2023-06-10T09:14:44;26.10;97.90
40287;DHT22;25998;46.604;13.610;2023-06-10T09:17:55;26.30;98.60
40287;DHT22;25998;46.604;13.610;2023-06-10T09:21:06;26.10;97.10
40287;DHT22;25998;46.604;13.610;2023-06-10T09:24:17;26.50;96.60
40287;DHT22;25998;46.604;13.610;2023-06-10T09:27:30;26.10;95.90
40287;DHT22;25998;46.604;13.610;2023-06-10T09:30:42;26.10;95.70
40287;DHT22;25998;46.604;13.610;2023-06-10T09:33:53;26.60;96.30
40287;DHT22;25998;46.604;13.610;2023-06-10T09:37:04;26.80;96.60
40287;DHT22;25998;46.604;13.610;2023-06-10T09:40:15;26.90;96.20
40287;DHT22;25998;46.604;13.610;2023-06-10T09:43:45;26.80;96.10
40287;DHT22;25998;46.604;13.610;2023-06-10T09:46:57;26.80;95.30
40287;DHT22;25998;46.604;13.610;2023-06-10T09:50:10;26.80;95.50
40287;DHT22;25998;46.604;13.610;2023-06-10T09:53:21;26.90;94.80
40287;DHT22;25998;46.604;13.610;2023-06-10T09:56:38;27.10;95.20
40287;DHT22;25998;46.604;13.610;2023-06-10T09:59:53;27.40;94.40
40287;DHT22;25998;46.604;13.610;2023-06-10T10:03:04;27.70;96.70
40287;DHT22;25998;46.604;13.610;2023-06-10T10:06:19;27.40;94.50
40287;DHT22;25998;46.604;13.610;2023-06-10T10:09:30;27.80;95.20
40287;DHT22;25998;46.604;13.610;2023-06-10T10:12:41;27.90;93.80
40287;DHT22;25998;46.604;13.610;2023-06-10T10:15:52;28.10;94.10
40287;DHT22;25998;46.604;13.610;2023-06-10T10:19:25;28.10;93.60
40287;DHT22;25998;46.604;13.610;2023-06-10T10:22:39;27.70;92.80
40287;DHT22;25998;46.604;13.610;2023-06-10T10:25:52;27.40;93.50
40287;DHT22;25998;46.604;13.610;2023-06-10T10:29:24;27.30;94.20
40287;DHT22;25998;46.604;13.610;2023-06-10T10:32:40;27.50;94.70
40287;DHT22;25998;46.604;13.610;2023-06-10T10:35:53;27.40;94.80
40287;DHT22;25998;46.604;13.610;2023-06-10T10:39:04;27.60;94.40
40287;DHT22;25998;46.604;13.610;2023-06-10T10:42:16;27.40;92.80
40287;DHT22;25998;46.604;13.610;2023-06-10T10:45:28;27.50;93.80
40287;DHT22;25998;46.604;13.610;2023-06-10T10:48:40;27.30;93.00
40287;DHT22;25998;46.604;13.610;2023-06-10T10:51:59;26.90;93.70
40287;DHT22;25998;46.604;13.610;2023-06-10T10:55:15;26.80;94.30
40287;DHT22;25998;46.604;13.610;2023-06-10T10:58:26;26.60;94.30
40287;DHT22;25998;46.604;13.610;2023-06-10T11:01:41;26.50;91.70
40287;DHT22;25998;46.604;13.610;2023-06-10T11:04:54;26.50;92.70
40287;DHT22;25998;46.604;13.610;2023-06-10T11:08:07;26.90;92.40
40287;DHT22;25998;46.604;13.610;2023-06-10T11:11:26;27.40;91.40
40287;DHT22;25998;46.604;13.610;2023-06-10T11:14:54;28.10;91.70
40287;DHT22;25998;46.604;13.610;2023-06-10T11:18:07;28.50;90.10
40287;DHT22;25998;46.604;13.610;2023-06-10T11:21:24;28.40;91.30
40287;DHT22;25998;46.604;13.610;2023-06-10T11:24:37;28.20;90.10
40287;DHT22;25998;46.604;13.610;2023-06-10T11:27:52;28.00;91.40
40287;DHT22;25998;46.604;13.610;2023-06-10T11:31:02;28.50;89.10
40287;DHT22;25998;46.604;13.610;2023-06-10T11:34:14;28.20;91.10
40287;DHT22;25998;46.604;13.610;2023-06-10T11:37:25;28.00;87.50
40287;DHT22;25998;46.604;13.610;2023-06-10T11:40:38;27.90;89.60
40287;DHT22;25998;46.604;13.610;2023-06-10T11:43:49;28.20;89.00
40287;DHT22;25998;46.604;13.610;2023-06-10T11:47:00;28.80;90.60
40287;DHT22;25998;46.604;13.610;2023-06-10T11:50:11;29.30;91.30
40287;DHT22;25998;46.604;13.610;2023-06-10T11:53:22;29.30;92.70
40287;DHT22;25998;46.604;13.610;2023-06-10T11:56:33;29.30;90.10
40287;DHT22;25998;46.604;13.610;2023-06-10T11:59:44;29.10;90.60
40287;DHT22;25998;46.604;13.610;2023-06-10T12:02:58;29.00;90.70
40287;DHT22;25998;46.604;13.610;2023-06-10T12:06:12;28.70;90.10
40287;DHT22;25998;46.604;13.610;2023-06-10T12:09:30;28.30;88.50
40287;DHT22;25998;46.604;13.610;2023-06-10T12:12:43;27.70;90.10
40287;DHT22;25998;46.604;13.610;2023-06-10T12:15:54;27.40;90.80
40287;DHT22;25998;46.604;13.610;2023-06-10T12:19:05;27.50;91.50
40287;DHT22;25998;46.604;13.610;2023-06-10T12:22:17;27.40;90.60
40287;DHT22;25998;46.604;13.610;2023-06-10T12:25:29;27.30;91.60
40287;DHT22;25998;46.604;13.610;2023-06-10T12:28:50;27.40;87.90
40287;DHT22;25998;46.604;13.610;2023-06-10T12:32:03;27.40;90.40
40287;DHT22;25998;46.604;13.610;2023-06-10T12:35:20;27.30;91.10
40287;DHT22;25998;46.604;13.610;2023-06-10T12:38:32;27.20;90.40
40287;DHT22;25998;46.604;13.610;2023-06-10T12:41:50;27.50;91.00
40287;DHT22;25998;46.604;13.610;2023-06-10T12:45:02;27.20;90.90
40287;DHT22;25998;46.604;13.610;2023-06-10T12:48:21;27.20;91.00
40287;DHT22;25998;46.604;13.610;2023-06-10T12:51:32;27.40;91.20
40287;DHT22;25998;46.604;13.610;2023-06-10T12:54:45;27.70;91.50
40287;DHT22;25998;46.604;13.610;2023-06-10T12:57:56;27.80;90.20
40287;DHT22;25998;46.604;13.610;2023-06-10T13:01:07;27.70;91.00
40287;DHT22;25998;46.604;13.610;2023-06-10T13:04:19;27.60;90.70
40287;DHT22;25998;46.604;13.610;2023-06-10T13:07:30;27.50;90.80
40287;DHT22;25998;46.604;13.610;2023-06-10T13:10:41;27.30;91.10
40287;DHT22;25998;46.604;13.610;2023-06-10T13:13:53;27.50;93.10
40287;DHT22;25998;46.604;13.610;2023-06-10T13:17:04;27.80;91.80
40287;DHT22;25998;46.604;13.610;2023-06-10T13:20:19;27.90;91.10
40287;DHT22;25998;46.604;13.610;2023-06-10T13:23:31;27.80;91.40
40287;DHT22;25998;46.604;13.610;2023-06-10T13:26:42;28.10;91.80
40287;DHT22;25998;46.604;13.610;2023-06-10T13:29:53;27.90;91.90
40287;DHT22;25998;46.604;13.610;2023-06-10T13:33:04;28.20;90.60
40287;DHT22;25998;46.604;13.610;2023-06-10T13:36:15;28.00;90.90
40287;DHT22;25998;46.604;13.610;2023-06-10T13:39:26;28.00;91.00
40287;DHT22;25998;46.604;13.610;2023-06-10T13:42:37;27.60;90.30
40287;DHT22;25998;46.604;13.610;2023-06-10T13:45:48;27.40;90.70
40287;DHT22;25998;46.604;13.610;2023-06-10T13:48:59;27.60;92.10
40287;DHT22;25998;46.604;13.610;2023-06-10T13:52:10;27.50;91.10
40287;DHT22;25998;46.604;13.610;2023-06-10T13:55:20;27.30;90.70
40287;DHT22;25998;46.604;13.610;2023-06-10T13:58:31;27.10;91.40
40287;DHT22;25998;46.604;13.610;2023-06-10T14:01:42;27.00;90.80
40287;DHT22;25998;46.604;13.610;2023-06-10T14:04:53;27.30;91.90
40287;DHT22;25998;46.604;13.610;2023-06-10T14:08:05;27.20;88.90
40287;DHT22;25998;46.604;13.610;2023-06-10T14:11:16;27.10;89.20
40287;DHT22;25998;46.604;13.610;2023-06-10T14:14:27;26.90;88.60
40287;DHT22;25998;46.604;13.610;2023-06-10T14:17:38;26.70;89.80
40287;DHT22;25998;46.604;13.610;2023-06-10T14:20:49;26.40;88.60
40287;DHT22;25998;46.604;13.610;2023-06-10T14:23:59;26.20;88.30
40287;DHT22;25998;46.604;13.610;2023-06-10T14:27:11;26.10;89.50
40287;DHT22;25998;46.604;13.610;2023-06-10T14:30:22;26.20;90.20
40287;DHT22;25998;46.604;13.610;2023-06-10T14:33:32;26.20;90.00
40287;DHT22;25998;46.604;13.610;2023-06-10T14:36:43;26.20;88.60
40287;DHT22;25998;46.604;13.610;2023-06-10T14:39:54;26.10;89.40
40287;DHT22;25998;46.604;13.610;2023-06-10T14:43:05;26.20;88.20
40287;DHT22;25998;46.604;13.610;2023-06-10T14:46:23;26.40;89.20
40287;DHT22;25998;46.604;13.610;2023-06-10T14:49:34;26.40;89.00
40287;DHT22;25998;46.604;13.610;2023-06-10T14:52:45;26.40;88.30
40287;DHT22;25998;46.604;13.610;2023-06-10T14:55:56;26.40;88.90
40287;DHT22;25998;46.604;13.610;2023-06-10T14:59:07;26.20;90.70
40287;DHT22;25998;46.604;13.610;2023-06-10T15:02:18;26.30;90.70
40287;DHT22;25998;46.604;13.610;2023-06-10T15:05:29;26.20;87.60
40287;DHT22;25998;46.604;13.610;2023-06-10T15:08:39;26.10;88.00
40287;DHT22;25998;46.604;13.610;2023-06-10T15:11:50;26.00;90.00
40287;DHT22;25998;46.604;13.610;2023-06-10T15:15:02;25.80;88.90
40287;DHT22;25998;46.604;13.610;2023-06-10T15:18:13;25.70;90.20
40287;DHT22;25998;46.604;13.610;2023-06-10T15:21:24;25.60;90.70
40287;DHT22;25998;46.604;13.610;2023-06-10T15:24:35;25.60;91.90
40287;DHT22;25998;46.604;13.610;2023-06-10T15:27:45;25.50;92.80
40287;DHT22;25998;46.604;13.610;2023-06-10T15:30:56;25.50;93.50
40287;DHT22;25998;46.604;13.610;2023-06-10T15:34:07;25.50;92.30
40287;DHT22;25998;46.604;13.610;2023-06-10T15:37:19;25.10;91.70
40287;DHT22;25998;46.604;13.610;2023-06-10T15:40:31;25.00;92.50
40287;DHT22;25998;46.604;13.610;2023-06-10T15:43:42;25.00;90.90
40287;DHT22;25998;46.604;13.610;2023-06-10T15:46:53;24.50;91.60
40287;DHT22;25998;46.604;13.610;2023-06-10T15:50:04;24.20;92.60
40287;DHT22;25998;46.604;13.610;2023-06-10T15:53:15;23.90;92.20
40287;DHT22;25998;46.604;13.610;2023-06-10T15:56:26;23.90;92.40
40287;DHT22;25998;46.604;13.610;2023-06-10T15:59:37;23.50;92.00
40287;DHT22;25998;46.604;13.610;2023-06-10T16:02:48;23.40;93.20
40287;DHT22;25998;46.604;13.610;2023-06-10T16:05:59;23.00;93.60
40287;DHT22;25998;46.604;13.610;2023-06-10T16:09:09;22.60;93.90
40287;DHT22;25998;46.604;13.610;2023-06-10T16:12:21;22.30;93.40
40287;DHT22;25998;46.604;13.610;2023-06-10T16:15:32;22.20;93.90
40287;DHT22;25998;46.604;13.610;2023-06-10T16:18:43;22.10;94.60
40287;DHT22;25998;46.604;13.610;2023-06-10T16:21:54;22.00;95.10
40287;DHT22;25998;46.604;13.610;2023-06-10T16:25:05;21.90;96.60
40287;DHT22;25998;46.604;13.610;2023-06-10T16:28:16;21.90;98.40
40287;DHT22;25998;46.604;13.610;2023-06-10T16:31:27;22.10;98.60
40287;DHT22;25998;46.604;13.610;2023-06-10T16:34:38;22.00;99.40
40287;DHT22;25998;46.604;13.610;2023-06-10T16:37:49;21.90;99.90
40287;DHT22;25998;46.604;13.610;2023-06-10T16:41:00;21.70;98.10
40287;DHT22;25998;46.604;13.610;2023-06-10T16:44:10;21.50;98.10
40287;DHT22;25998;46.604;13.610;2023-06-10T16:47:21;21.30;98.40
40287;DHT22;25998;46.604;13.610;2023-06-10T16:50:32;21.10;97.80
40287;DHT22;25998;46.604;13.610;2023-06-10T16:53:43;21.40;99.50
40287;DHT22;25998;46.604;13.610;2023-06-10T16:56:54;21.60;98.30
40287;DHT22;25998;46.604;13.610;2023-06-10T17:00:06;21.70;98.60
40287;DHT22;25998;46.604;13.610;2023-06-10T17:03:17;21.70;98.60
40287;DHT22;25998;46.604;13.610;2023-06-10T17:06:28;21.40;97.80
40287;DHT22;25998;46.604;13.610;2023-06-10T17:09:38;21.20;99.60
40287;DHT22;25998;46.604;13.610;2023-06-10T17:12:49;21.60;99.30
40287;DHT22;25998;46.604;13.610;2023-06-10T17:16:00;21.80;98.90
40287;DHT22;25998;46.604;13.610;2023-06-10T17:19:11;21.50;97.70
40287;DHT22;25998;46.604;13.610;2023-06-10T17:22:22;21.20;98.40
40287;DHT22;25998;46.604;13.610;2023-06-10T17:25:33;21.20;98.70
40287;DHT22;25998;46.604;13.610;2023-06-10T17:28:45;21.40;99.90
40287;DHT22;25998;46.604;13.610;2023-06-10T17:31:56;21.70;99.10
40287;DHT22;25998;46.604;13.610;2023-06-10T17:35:08;21.60;99.50
40287;DHT22;25998;46.604;13.610;2023-06-10T17:38:19;21.60;99.30
40287;DHT22;25998;46.604;13.610;2023-06-10T17:41:32;21.60;99.50
40287;DHT22;25998;46.604;13.610;2023-06-10T17:44:43;21.50;98.40
40287;DHT22;25998;46.604;13.610;2023-06-10T17:47:54;21.50;98.60
40287;DHT22;25998;46.604;13.610;2023-06-10T17:51:04;21.60;99.10
40287;DHT22;25998;46.604;13.610;2023-06-10T17:54:16;21.50;98.80
40287;DHT22;25998;46.604;13.610;2023-06-10T17:57:27;21.60;99.40
40287;DHT22;25998;46.604;13.610;2023-06-10T18:00:39;21.60;99.90
40287;DHT22;25998;46.604;13.610;2023-06-10T18:03:50;21.30;99.90
40287;DHT22;25998;46.604;13.610;2023-06-10T18:07:00;21.20;99.90
40287;DHT22;25998;46.604;13.610;2023-06-10T18:10:11;21.00;99.90
40287;DHT22;25998;46.604;13.610;2023-06-10T18:13:22;20.90;99.90
40287;DHT22;25998;46.604;13.610;2023-06-10T18:16:33;20.80;99.90
40287;DHT22;25998;46.604;13.610;2023-06-10T18:19:44;20.50;99.90
40287;DHT22;25998;46.604;13.610;2023-06-10T18:22:55;20.40;99.90
40287;DHT22;25998;46.604;13.610;2023-06-10T18:26:06;20.30;99.90
40287;DHT22;25998;46.604;13.610;2023-06-10T18:29:16;20.00;99.90
40287;DHT22;25998;46.604;13.610;2023-06-10T18:32:27;19.80;99.90
40287;DHT22;25998;46.604;13.610;2023-06-10T18:35:38;19.70;99.90
40287;DHT22;25998;46.604;13.610;2023-06-10T18:38:49;19.70;99.90
40287;DHT22;25998;46.604;13.610;2023-06-10T18:42:01;19.50;99.90
40287;DHT22;25998;46.604;13.610;2023-06-10T18:45:12;19.60;99.90
40287;DHT22;25998;46.604;13.610;2023-06-10T18:48:23;19.60;99.90
40287;DHT22;25998;46.604;13.610;2023-06-10T18:51:34;19.40;99.90
40287;DHT22;25998;46.604;13.610;2023-06-10T18:54:45;19.50;99.90
40287;DHT22;25998;46.604;13.610;2023-06-10T18:57:56;19.40;99.90
40287;DHT22;25998;46.604;13.610;2023-06-10T19:01:07;19.10;99.90
40287;DHT22;25998;46.604;13.610;2023-06-10T19:04:18;19.20;99.90
40287;DHT22;25998;46.604;13.610;2023-06-10T19:07:29;19.40;99.90
40287;DHT22;25998;46.604;13.610;2023-06-10T19:10:40;19.50;99.90
40287;DHT22;25998;46.604;13.610;2023-06-10T19:13:51;19.50;99.90
40287;DHT22;25998;46.604;13.610;2023-06-10T19:17:02;19.50;99.90
40287;DHT22;25998;46.604;13.610;2023-06-10T19:20:13;19.40;99.90
40287;DHT22;25998;46.604;13.610;2023-06-10T19:23:24;18.90;99.90
40287;DHT22;25998;46.604;13.610;2023-06-10T19:26:35;18.70;99.90
40287;DHT22;25998;46.604;13.610;2023-06-10T19:29:46;18.90;99.90
40287;DHT22;25998;46.604;13.610;2023-06-10T19:32:56;18.70;99.90
40287;DHT22;25998;46.604;13.610;2023-06-10T19:36:07;18.50;99.90
40287;DHT22;25998;46.604;13.610;2023-06-10T19:39:18;18.60;99.90
40287;DHT22;25998;46.604;13.610;2023-06-10T19:42:29;18.80;99.90
40287;DHT22;25998;46.604;13.610;2023-06-10T19:45:40;18.50;99.90
40287;DHT22;25998;46.604;13.610;2023-06-10T19:48:51;18.40;99.90
40287;DHT22;25998;46.604;13.610;2023-06-10T19:52:02;18.40;99.90